createdAt,value
2022-11-29T00:00:02.735Z,42.70
2022-11-29T00:00:07.714Z,41.40
2022-11-29T00:00:17.712Z,41.90
2022-11-29T00:00:27.709Z,41.40
2022-11-29T00:00:37.727Z,41.00
2022-11-29T00:00:47.708Z,40.90
2022-11-29T00:00:57.765Z,41.10
2022-11-29T00:01:07.738Z,42.80
2022-11-29T00:01:17.710Z,42.10
2022-11-29T00:01:27.830Z,42.30
2022-11-29T00:01:37.715Z,42.30
2022-11-29T00:01:47.735Z,43.50
2022-11-29T00:01:57.820Z,43.80
2022-11-29T00:02:07.877Z,42.40
2022-11-29T00:02:17.917Z,43.30
2022-11-29T00:02:27.923Z,43.90
2022-11-29T00:02:37.862Z,43.70
2022-11-29T00:02:47.831Z,44.00
2022-11-29T00:02:57.819Z,42.60
2022-11-29T00:03:07.834Z,43.10
2022-11-29T00:03:17.830Z,42.00
2022-11-29T00:03:27.780Z,43.80
2022-11-29T00:03:37.704Z,49.70
2022-11-29T00:03:47.707Z,45.20
2022-11-29T00:03:58.355Z,43.70
2022-11-29T00:04:07.706Z,42.60
2022-11-29T00:04:17.720Z,44.90
2022-11-29T00:04:27.693Z,44.80
2022-11-29T00:04:37.693Z,44.00
2022-11-29T00:04:47.703Z,41.00
2022-11-29T00:04:57.691Z,41.40
2022-11-29T00:05:07.788Z,41.20
2022-11-29T00:05:17.692Z,42.30
2022-11-29T00:05:27.695Z,41.80
2022-11-29T00:05:37.686Z,42.40
2022-11-29T00:05:47.698Z,43.20
2022-11-29T00:05:57.686Z,42.80
2022-11-29T00:06:07.691Z,42.30
2022-11-29T00:06:17.724Z,42.00
2022-11-29T00:06:27.688Z,42.10
2022-11-29T00:06:37.698Z,41.90
2022-11-29T00:06:47.719Z,43.30
2022-11-29T00:06:57.687Z,44.00
2022-11-29T00:07:07.685Z,44.40
2022-11-29T00:07:17.779Z,43.10
2022-11-29T00:07:27.753Z,42.20
2022-11-29T00:07:37.789Z,41.50
2022-11-29T00:07:47.757Z,41.60
2022-11-29T00:07:57.679Z,42.30
2022-11-29T00:08:07.678Z,43.20
2022-11-29T00:08:17.785Z,45.20
2022-11-29T00:08:27.686Z,45.00
2022-11-29T00:08:37.674Z,45.80
2022-11-29T00:08:47.701Z,43.90
2022-11-29T00:08:57.677Z,44.30
2022-11-29T00:09:07.779Z,45.10
2022-11-29T00:09:17.686Z,44.40
2022-11-29T00:09:27.686Z,43.40
2022-11-29T00:09:38.257Z,42.30
2022-11-29T00:09:47.687Z,43.30
2022-11-29T00:09:57.672Z,44.20
2022-11-29T00:10:07.709Z,43.30
2022-11-29T00:10:17.711Z,43.20
2022-11-29T00:10:27.675Z,42.80
2022-11-29T00:10:37.678Z,42.80
2022-11-29T00:10:47.682Z,42.70
2022-11-29T00:10:57.689Z,42.80
2022-11-29T00:11:07.687Z,44.10
2022-11-29T00:11:17.688Z,43.40
2022-11-29T00:11:27.677Z,44.20
2022-11-29T00:11:37.671Z,43.40
2022-11-29T00:11:47.657Z,44.30
2022-11-29T00:11:57.690Z,43.10
2022-11-29T00:12:07.673Z,43.80
2022-11-29T00:12:17.685Z,43.90
2022-11-29T00:12:27.661Z,44.10
2022-11-29T00:12:37.666Z,43.90
2022-11-29T00:12:47.707Z,43.10
2022-11-29T00:12:57.655Z,44.60
2022-11-29T00:13:08.279Z,44.10
2022-11-29T00:13:17.717Z,45.00
2022-11-29T00:13:27.653Z,44.00
2022-11-29T00:13:37.650Z,43.30
2022-11-29T00:13:47.691Z,44.20
2022-11-29T00:13:57.646Z,45.50
2022-11-29T00:14:07.656Z,44.30
2022-11-29T00:14:17.666Z,43.50
2022-11-29T00:14:27.653Z,41.40
2022-11-29T00:14:37.645Z,41.80
2022-11-29T00:14:47.669Z,42.80
2022-11-29T00:14:57.652Z,44.10
2022-11-29T00:15:07.649Z,45.70
2022-11-29T00:15:17.794Z,45.00
2022-11-29T00:15:27.657Z,47.00
2022-11-29T00:15:37.652Z,46.90
2022-11-29T00:15:47.648Z,48.40
2022-11-29T00:15:58.256Z,46.80
2022-11-29T00:16:07.665Z,46.10
2022-11-29T00:16:18.336Z,44.40
2022-11-29T00:16:27.674Z,42.90
2022-11-29T00:16:37.808Z,43.30
2022-11-29T00:16:47.679Z,44.50
2022-11-29T00:16:57.731Z,44.60
2022-11-29T00:17:07.642Z,44.70
2022-11-29T00:17:17.767Z,44.30
2022-11-29T00:17:27.731Z,45.10
2022-11-29T00:17:37.637Z,44.60
2022-11-29T00:17:47.640Z,45.00
2022-11-29T00:17:57.818Z,44.30
2022-11-29T00:18:07.692Z,44.30
2022-11-29T00:18:18.267Z,43.60
2022-11-29T00:18:27.639Z,44.30
2022-11-29T00:18:37.662Z,45.40
2022-11-29T00:18:47.638Z,45.00
2022-11-29T00:18:57.686Z,45.20
2022-11-29T00:19:07.636Z,44.00
2022-11-29T00:19:17.663Z,43.60
2022-11-29T00:19:27.750Z,43.20
2022-11-29T00:19:37.624Z,43.70
2022-11-29T00:19:47.657Z,45.90
2022-11-29T00:19:57.738Z,45.20
2022-11-29T00:20:07.672Z,45.10
2022-11-29T00:20:17.730Z,43.10
2022-11-29T00:20:27.634Z,43.80
2022-11-29T00:20:37.623Z,44.00
2022-11-29T00:20:47.665Z,44.40
2022-11-29T00:20:57.632Z,44.60
2022-11-29T00:21:07.631Z,43.90
2022-11-29T00:21:18.278Z,42.80
2022-11-29T00:21:27.622Z,41.30
2022-11-29T00:21:37.621Z,42.10
2022-11-29T00:21:47.623Z,44.50
2022-11-29T00:21:57.631Z,44.60
2022-11-29T00:22:07.638Z,45.60
2022-11-29T00:22:17.734Z,46.70
2022-11-29T00:22:27.619Z,48.70
2022-11-29T00:22:37.630Z,47.10
2022-11-29T00:22:47.616Z,45.20
2022-11-29T00:22:57.610Z,43.10
2022-11-29T00:23:07.675Z,45.30
2022-11-29T00:23:18.295Z,44.20
2022-11-29T00:23:27.613Z,45.80
2022-11-29T00:23:37.696Z,44.30
2022-11-29T00:23:47.622Z,45.90
2022-11-29T00:23:57.614Z,45.20
2022-11-29T00:24:07.611Z,44.50
2022-11-29T00:24:17.679Z,44.20
2022-11-29T00:24:27.617Z,44.40
2022-11-29T00:24:37.603Z,46.00
2022-11-29T00:24:47.610Z,46.70
2022-11-29T00:24:58.306Z,46.90
2022-11-29T00:25:07.616Z,45.40
2022-11-29T00:25:17.653Z,45.00
2022-11-29T00:25:27.624Z,45.90
2022-11-29T00:25:37.601Z,47.20
2022-11-29T00:25:47.605Z,47.20
2022-11-29T00:25:58.289Z,45.60
2022-11-29T00:26:08.277Z,44.60
2022-11-29T00:26:17.655Z,45.20
2022-11-29T00:26:27.628Z,45.40
2022-11-29T00:26:37.596Z,44.40
2022-11-29T00:26:47.603Z,44.00
2022-11-29T00:26:57.605Z,44.90
2022-11-29T00:27:07.607Z,46.60
2022-11-29T00:27:17.621Z,47.10
2022-11-29T00:27:27.622Z,45.50
2022-11-29T00:27:37.607Z,44.10
2022-11-29T00:27:47.627Z,43.30
2022-11-29T00:27:57.593Z,45.80
2022-11-29T00:28:07.595Z,47.00
2022-11-29T00:28:18.288Z,46.60
2022-11-29T00:28:27.596Z,45.80
2022-11-29T00:28:37.632Z,45.40
2022-11-29T00:28:47.597Z,44.60
2022-11-29T00:28:57.620Z,43.20
2022-11-29T00:29:07.628Z,44.90
2022-11-29T00:29:17.662Z,46.90
2022-11-29T00:29:27.604Z,47.60
2022-11-29T00:29:37.584Z,45.80
2022-11-29T00:29:47.651Z,44.40
2022-11-29T00:29:57.607Z,44.10
2022-11-29T00:30:07.589Z,44.00
2022-11-29T00:30:17.622Z,44.50
2022-11-29T00:30:27.648Z,44.30
2022-11-29T00:30:37.641Z,46.00
2022-11-29T00:30:47.606Z,46.10
2022-11-29T00:30:57.668Z,47.00
2022-11-29T00:31:07.607Z,45.60
2022-11-29T00:31:17.669Z,44.60
2022-11-29T00:31:27.626Z,44.70
2022-11-29T00:31:37.576Z,46.80
2022-11-29T00:31:47.576Z,46.80
2022-11-29T00:31:57.648Z,46.10
2022-11-29T00:32:07.573Z,44.50
2022-11-29T00:32:20.302Z,46.20
2022-11-29T00:32:27.577Z,46.30
2022-11-29T00:32:37.586Z,46.00
2022-11-29T00:32:47.587Z,45.80
2022-11-29T00:32:57.578Z,46.10
2022-11-29T00:33:07.571Z,45.70
2022-11-29T00:33:18.265Z,44.60
2022-11-29T00:33:27.716Z,46.10
2022-11-29T00:33:37.574Z,47.90
2022-11-29T00:33:47.579Z,48.50
2022-11-29T00:33:57.569Z,48.10
2022-11-29T00:34:07.579Z,47.00
2022-11-29T00:34:17.702Z,46.20
2022-11-29T00:34:27.573Z,45.60
2022-11-29T00:34:37.562Z,45.00
2022-11-29T00:34:47.625Z,44.50
2022-11-29T00:34:59.618Z,43.70
2022-11-29T00:35:09.842Z,42.80
2022-11-29T00:35:17.693Z,43.00
2022-11-29T00:35:27.566Z,42.20
2022-11-29T00:35:37.593Z,43.40
2022-11-29T00:35:47.557Z,42.90
2022-11-29T00:35:57.560Z,43.50
2022-11-29T00:36:08.281Z,43.10
2022-11-29T00:36:17.727Z,44.80
2022-11-29T00:36:27.562Z,47.00
2022-11-29T00:36:37.584Z,48.20
2022-11-29T00:36:47.554Z,48.70
2022-11-29T00:36:57.556Z,48.10
2022-11-29T00:37:07.597Z,49.00
2022-11-29T00:37:17.556Z,49.10
2022-11-29T00:37:27.554Z,47.80
2022-11-29T00:37:37.562Z,46.10
2022-11-29T00:37:47.570Z,44.60
2022-11-29T00:37:57.714Z,45.80
2022-11-29T00:38:07.554Z,47.70
2022-11-29T00:38:20.264Z,47.30
2022-11-29T00:38:28.281Z,46.60
2022-11-29T00:38:37.594Z,46.20
2022-11-29T00:38:47.570Z,47.10
2022-11-29T00:38:57.618Z,48.00
2022-11-29T00:39:07.545Z,47.40
2022-11-29T00:39:17.594Z,46.50
2022-11-29T00:39:27.564Z,46.60
2022-11-29T00:39:37.551Z,47.70
2022-11-29T00:39:47.590Z,48.10
2022-11-29T00:39:57.554Z,47.60
2022-11-29T00:40:07.555Z,46.70
2022-11-29T00:40:17.670Z,47.40
2022-11-29T00:40:27.545Z,46.50
2022-11-29T00:40:37.549Z,45.20
2022-11-29T00:40:47.540Z,45.60
2022-11-29T00:40:57.550Z,47.00
2022-11-29T00:41:07.552Z,48.40
2022-11-29T00:41:17.548Z,46.80
2022-11-29T00:41:27.541Z,45.30
2022-11-29T00:41:37.536Z,44.70
2022-11-29T00:41:47.555Z,45.70
2022-11-29T00:41:57.567Z,44.20
2022-11-29T00:42:07.539Z,45.20
2022-11-29T00:42:17.538Z,45.50
2022-11-29T00:42:27.537Z,47.10
2022-11-29T00:42:37.558Z,45.40
2022-11-29T00:42:47.572Z,45.60
2022-11-29T00:42:57.530Z,43.80
2022-11-29T00:43:07.684Z,45.70
2022-11-29T00:43:17.532Z,45.10
2022-11-29T00:43:28.262Z,46.00
2022-11-29T00:43:37.538Z,44.80
2022-11-29T00:43:47.623Z,46.10
2022-11-29T00:43:57.549Z,47.20
2022-11-29T00:44:07.544Z,48.70
2022-11-29T00:44:20.378Z,47.20
2022-11-29T00:44:27.563Z,46.30
2022-11-29T00:44:37.783Z,45.80
2022-11-29T00:44:47.520Z,45.10
2022-11-29T00:44:57.545Z,46.00
2022-11-29T00:45:07.553Z,45.60
2022-11-29T00:45:17.523Z,46.30
2022-11-29T00:45:27.548Z,46.20
2022-11-29T00:45:37.646Z,46.50
2022-11-29T00:45:47.565Z,46.30
2022-11-29T00:45:57.652Z,47.20
2022-11-29T00:46:07.568Z,47.50
2022-11-29T00:46:17.580Z,47.30
2022-11-29T00:46:27.533Z,45.90
2022-11-29T00:46:38.265Z,44.20
2022-11-29T00:46:47.535Z,44.60
2022-11-29T00:46:57.521Z,45.40
2022-11-29T00:47:07.514Z,46.10
2022-11-29T00:47:17.545Z,45.00
2022-11-29T00:47:27.518Z,44.10
2022-11-29T00:47:37.606Z,44.80
2022-11-29T00:47:47.547Z,46.60
2022-11-29T00:47:57.517Z,48.10
2022-11-29T00:48:07.506Z,48.00
2022-11-29T00:48:17.525Z,47.20
2022-11-29T00:48:27.520Z,47.60
2022-11-29T00:48:37.513Z,47.50
2022-11-29T00:48:47.615Z,49.10
2022-11-29T00:48:57.620Z,48.40
2022-11-29T00:49:07.513Z,48.40
2022-11-29T00:49:17.509Z,46.90
2022-11-29T00:49:27.512Z,46.70
2022-11-29T00:49:37.518Z,45.40
2022-11-29T00:49:47.610Z,45.70
2022-11-29T00:49:57.557Z,47.30
2022-11-29T00:50:07.555Z,47.80
2022-11-29T00:50:17.502Z,48.20
2022-11-29T00:50:27.507Z,46.20
2022-11-29T00:50:37.597Z,46.00
2022-11-29T00:50:47.512Z,46.00
2022-11-29T00:50:57.494Z,49.00
2022-11-29T00:51:07.500Z,51.10
2022-11-29T00:51:17.514Z,54.30
2022-11-29T00:51:27.501Z,47.90
2022-11-29T00:51:37.499Z,48.40
2022-11-29T00:51:47.498Z,47.60
2022-11-29T00:51:57.511Z,47.30
2022-11-29T00:52:07.510Z,47.10
2022-11-29T00:52:17.502Z,46.90
2022-11-29T00:52:27.500Z,46.10
2022-11-29T00:52:38.266Z,45.30
2022-11-29T00:52:48.285Z,45.90
2022-11-29T00:52:57.576Z,46.70
2022-11-29T00:53:07.486Z,48.30
2022-11-29T00:53:17.496Z,56.50
2022-11-29T00:53:27.501Z,51.10
2022-11-29T00:53:37.511Z,48.00
2022-11-29T00:53:47.496Z,45.80
2022-11-29T00:53:57.526Z,46.70
2022-11-29T00:54:07.592Z,49.10
2022-11-29T00:54:18.274Z,50.30
2022-11-29T00:54:27.486Z,49.30
2022-11-29T00:54:37.539Z,49.10
2022-11-29T00:54:47.491Z,48.70
2022-11-29T00:54:57.516Z,49.40
2022-11-29T00:55:07.489Z,47.50
2022-11-29T00:55:17.609Z,46.50
2022-11-29T00:55:27.495Z,46.30
2022-11-29T00:55:37.494Z,47.10
2022-11-29T00:55:47.599Z,47.30
2022-11-29T00:55:57.508Z,47.40
2022-11-29T00:56:07.534Z,47.10
2022-11-29T00:56:17.488Z,49.80
2022-11-29T00:56:27.478Z,49.60
2022-11-29T00:56:37.477Z,49.50
2022-11-29T00:56:47.555Z,49.30
2022-11-29T00:56:57.482Z,48.40
2022-11-29T00:57:07.580Z,49.30
2022-11-29T00:57:17.474Z,47.50
2022-11-29T00:57:27.483Z,48.50
2022-11-29T00:57:38.289Z,47.80
2022-11-29T00:57:47.495Z,47.30
2022-11-29T00:57:57.487Z,47.00
2022-11-29T00:58:07.472Z,47.10
2022-11-29T00:58:17.473Z,48.10
2022-11-29T00:58:27.513Z,49.00
2022-11-29T00:58:37.495Z,49.20
2022-11-29T00:58:47.470Z,49.10
2022-11-29T00:58:57.481Z,50.00
2022-11-29T00:59:07.573Z,50.50
2022-11-29T00:59:17.530Z,51.00
2022-11-29T00:59:27.478Z,49.20
2022-11-29T00:59:37.465Z,48.70
2022-11-29T00:59:47.565Z,47.70
2022-11-29T00:59:57.459Z,47.80
2022-11-29T01:00:07.456Z,47.50
2022-11-29T01:00:17.464Z,48.90
2022-11-29T01:00:27.579Z,48.30
2022-11-29T01:00:37.500Z,48.20
2022-11-29T01:00:47.461Z,46.60
2022-11-29T01:00:57.523Z,47.70
2022-11-29T01:01:07.509Z,48.80
2022-11-29T01:01:18.360Z,49.70
2022-11-29T01:01:27.521Z,49.20
2022-11-29T01:01:37.551Z,48.60
2022-11-29T01:01:47.545Z,47.30
2022-11-29T01:01:57.528Z,47.50
2022-11-29T01:02:07.574Z,46.50
2022-11-29T01:02:17.502Z,49.10
2022-11-29T01:02:27.476Z,49.50
2022-11-29T01:02:37.508Z,53.30
2022-11-29T01:02:47.502Z,54.80
2022-11-29T01:02:57.447Z,63.00
2022-11-29T01:03:07.483Z,52.00
2022-11-29T01:03:17.450Z,50.30
2022-11-29T01:03:27.520Z,49.60
2022-11-29T01:03:37.512Z,49.40
2022-11-29T01:03:48.294Z,49.00
2022-11-29T01:03:57.455Z,49.90
2022-11-29T01:04:07.560Z,48.90
2022-11-29T01:04:17.452Z,49.00
2022-11-29T01:04:27.523Z,48.60
2022-11-29T01:04:37.480Z,50.10
2022-11-29T01:04:47.617Z,51.80
2022-11-29T01:04:57.458Z,51.10
2022-11-29T01:05:07.449Z,52.10
2022-11-29T01:05:17.458Z,49.70
2022-11-29T01:05:27.484Z,49.20
2022-11-29T01:05:37.459Z,49.30
2022-11-29T01:05:47.437Z,50.40
2022-11-29T01:05:57.459Z,51.10
2022-11-29T01:06:07.440Z,54.80
2022-11-29T01:06:17.440Z,53.70
2022-11-29T01:06:28.321Z,51.20
2022-11-29T01:06:37.444Z,50.10
2022-11-29T01:06:47.437Z,49.80
2022-11-29T01:06:57.442Z,49.90
2022-11-29T01:07:07.453Z,50.40
2022-11-29T01:07:17.495Z,49.90
2022-11-29T01:07:27.524Z,50.00
2022-11-29T01:07:37.500Z,49.10
2022-11-29T01:07:47.510Z,51.70
2022-11-29T01:07:57.473Z,52.10
2022-11-29T01:08:07.459Z,51.50
2022-11-29T01:08:18.296Z,51.70
2022-11-29T01:08:27.442Z,51.90
2022-11-29T01:08:37.461Z,51.80
2022-11-29T01:08:47.444Z,50.80
2022-11-29T01:08:57.444Z,49.80
2022-11-29T01:09:07.453Z,48.70
2022-11-29T01:09:17.420Z,48.70
2022-11-29T01:09:27.428Z,50.90
2022-11-29T01:09:37.526Z,56.10
2022-11-29T01:09:47.419Z,52.10
2022-11-29T01:09:57.431Z,56.70
2022-11-29T01:10:07.428Z,51.20
2022-11-29T01:10:17.425Z,59.80
2022-11-29T01:10:27.433Z,52.70
2022-11-29T01:10:37.430Z,57.30
2022-11-29T01:10:47.424Z,54.20
2022-11-29T01:10:57.436Z,53.80
2022-11-29T01:11:07.550Z,53.00
2022-11-29T01:11:17.433Z,51.80
2022-11-29T01:11:28.283Z,51.40
2022-11-29T01:11:37.422Z,52.10
2022-11-29T01:11:47.412Z,55.80
2022-11-29T01:11:57.419Z,53.20
2022-11-29T01:12:07.482Z,51.60
2022-11-29T01:12:17.409Z,49.60
2022-11-29T01:12:27.406Z,49.60
2022-11-29T01:12:37.411Z,50.30
2022-11-29T01:12:47.443Z,51.10
2022-11-29T01:12:57.428Z,50.30
2022-11-29T01:13:07.409Z,51.10
2022-11-29T01:13:17.418Z,52.60
2022-11-29T01:13:28.301Z,53.50
2022-11-29T01:13:37.416Z,57.80
2022-11-29T01:13:47.418Z,52.70
2022-11-29T01:13:57.518Z,52.50
2022-11-29T01:14:07.442Z,52.20
2022-11-29T01:14:17.419Z,54.80
2022-11-29T01:14:27.421Z,59.20
2022-11-29T01:14:37.415Z,54.50
2022-11-29T01:14:48.279Z,53.00
2022-11-29T01:14:57.398Z,50.20
2022-11-29T01:15:07.434Z,49.40
2022-11-29T01:15:17.443Z,49.10
2022-11-29T01:15:27.398Z,49.80
2022-11-29T01:15:37.403Z,49.80
2022-11-29T01:15:47.397Z,51.20
2022-11-29T01:15:57.405Z,50.90
2022-11-29T01:16:07.406Z,51.50
2022-11-29T01:16:17.460Z,51.30
2022-11-29T01:16:27.509Z,51.90
2022-11-29T01:16:37.502Z,54.30
2022-11-29T01:16:47.436Z,55.60
2022-11-29T01:16:57.447Z,59.00
2022-11-29T01:17:07.528Z,52.70
2022-11-29T01:17:17.413Z,52.20
2022-11-29T01:17:27.389Z,51.40
2022-11-29T01:17:37.405Z,51.00
2022-11-29T01:17:47.416Z,51.50
2022-11-29T01:17:57.401Z,54.20
2022-11-29T01:18:07.448Z,55.20
2022-11-29T01:18:17.391Z,52.10
2022-11-29T01:18:27.383Z,50.40
2022-11-29T01:18:37.384Z,50.60
2022-11-29T01:18:47.379Z,51.80
2022-11-29T01:18:57.382Z,50.90
2022-11-29T01:19:07.397Z,51.40
2022-11-29T01:19:17.380Z,51.00
2022-11-29T01:19:27.451Z,52.90
2022-11-29T01:19:37.414Z,58.90
2022-11-29T01:19:50.831Z,56.60
2022-11-29T01:19:57.426Z,57.40
2022-11-29T01:20:07.381Z,56.90
2022-11-29T01:20:17.382Z,53.40
2022-11-29T01:20:27.386Z,51.40
2022-11-29T01:20:37.385Z,50.70
2022-11-29T01:20:48.357Z,53.30
2022-11-29T01:20:57.480Z,52.90
2022-11-29T01:21:07.384Z,56.80
2022-11-29T01:21:17.437Z,54.10
2022-11-29T01:21:27.394Z,56.00
2022-11-29T01:21:37.462Z,53.00
2022-11-29T01:21:47.465Z,56.30
2022-11-29T01:21:57.382Z,60.20
2022-11-29T01:22:07.367Z,56.10
2022-11-29T01:22:18.282Z,52.20
2022-11-29T01:22:27.380Z,51.30
2022-11-29T01:22:37.411Z,50.60
2022-11-29T01:22:47.374Z,49.90
2022-11-29T01:22:57.365Z,49.40
2022-11-29T01:23:07.367Z,49.80
2022-11-29T01:23:17.410Z,52.40
2022-11-29T01:23:27.447Z,51.20
2022-11-29T01:23:37.379Z,51.20
2022-11-29T01:23:47.369Z,49.80
2022-11-29T01:23:57.370Z,50.20
2022-11-29T01:24:07.368Z,51.80
2022-11-29T01:24:17.365Z,53.00
2022-11-29T01:24:27.379Z,55.90
2022-11-29T01:24:37.432Z,53.20
2022-11-29T01:24:47.376Z,52.80
2022-11-29T01:24:57.375Z,51.60
2022-11-29T01:25:07.429Z,53.50
2022-11-29T01:25:17.369Z,52.50
2022-11-29T01:25:27.360Z,54.40
2022-11-29T01:25:37.358Z,53.60
2022-11-29T01:25:47.357Z,56.80
2022-11-29T01:25:57.446Z,60.80
2022-11-29T01:26:07.363Z,54.80
2022-11-29T01:26:17.359Z,49.70
2022-11-29T01:26:28.284Z,48.20
2022-11-29T01:26:37.359Z,49.90
2022-11-29T01:26:47.362Z,51.20
2022-11-29T01:26:57.367Z,53.30
2022-11-29T01:27:07.350Z,53.70
2022-11-29T01:27:17.366Z,56.30
2022-11-29T01:27:27.361Z,52.90
2022-11-29T01:27:37.349Z,51.30
2022-11-29T01:27:47.366Z,49.60
2022-11-29T01:27:57.421Z,50.80
2022-11-29T01:28:07.376Z,51.50
2022-11-29T01:28:17.350Z,55.60
2022-11-29T01:28:27.351Z,53.60
2022-11-29T01:28:37.359Z,56.70
2022-11-29T01:28:47.344Z,53.80
2022-11-29T01:28:57.377Z,55.10
2022-11-29T01:29:07.357Z,51.70
2022-11-29T01:29:18.311Z,52.80
2022-11-29T01:29:27.354Z,52.40
2022-11-29T01:29:37.353Z,52.50
2022-11-29T01:29:47.358Z,51.90
2022-11-29T01:29:57.344Z,51.30
2022-11-29T01:30:07.344Z,51.40
2022-11-29T01:30:17.838Z,51.60
2022-11-29T01:30:27.409Z,51.60
2022-11-29T01:30:38.389Z,51.70
2022-11-29T01:30:47.395Z,51.50
2022-11-29T01:30:57.403Z,51.20
2022-11-29T01:31:07.392Z,51.20
2022-11-29T01:31:17.429Z,50.90
2022-11-29T01:31:27.360Z,52.40
2022-11-29T01:31:37.347Z,53.80
2022-11-29T01:31:47.372Z,54.00
2022-11-29T01:31:58.315Z,54.70
2022-11-29T01:32:07.418Z,52.90
2022-11-29T01:32:17.337Z,52.30
2022-11-29T01:32:27.340Z,51.90
2022-11-29T01:32:37.355Z,51.70
2022-11-29T01:32:47.338Z,52.30
2022-11-29T01:32:57.359Z,52.70
2022-11-29T01:33:07.341Z,53.30
2022-11-29T01:33:18.287Z,58.80
2022-11-29T01:33:28.335Z,56.10
2022-11-29T01:33:37.332Z,51.70
2022-11-29T01:33:47.321Z,51.80
2022-11-29T01:33:57.338Z,50.70
2022-11-29T01:34:07.320Z,51.90
2022-11-29T01:34:17.325Z,52.10
2022-11-29T01:34:27.321Z,53.20
2022-11-29T01:34:37.336Z,52.00
2022-11-29T01:34:47.421Z,52.00
2022-11-29T01:34:57.324Z,50.70
2022-11-29T01:35:07.327Z,50.80
2022-11-29T01:35:17.320Z,51.10
2022-11-29T01:35:27.372Z,52.50
2022-11-29T01:35:37.318Z,54.70
2022-11-29T01:35:47.354Z,53.80
2022-11-29T01:35:57.320Z,56.80
2022-11-29T01:36:07.319Z,55.10
2022-11-29T01:36:18.388Z,54.60
2022-11-29T01:36:27.332Z,51.40
2022-11-29T01:36:37.317Z,50.30
2022-11-29T01:36:47.320Z,51.40
2022-11-29T01:36:57.319Z,53.30
2022-11-29T01:37:07.318Z,55.20
2022-11-29T01:37:17.319Z,54.90
2022-11-29T01:37:27.306Z,53.40
2022-11-29T01:37:38.312Z,51.20
2022-11-29T01:37:47.313Z,51.80
2022-11-29T01:37:57.307Z,52.80
2022-11-29T01:38:07.314Z,53.30
2022-11-29T01:38:17.321Z,52.40
2022-11-29T01:38:27.342Z,51.80
2022-11-29T01:38:37.314Z,52.50
2022-11-29T01:38:47.311Z,51.50
2022-11-29T01:38:57.296Z,52.40
2022-11-29T01:39:07.376Z,54.00
2022-11-29T01:39:17.317Z,51.90
2022-11-29T01:39:27.300Z,54.00
2022-11-29T01:39:37.295Z,52.00
2022-11-29T01:39:47.309Z,54.80
2022-11-29T01:39:57.300Z,53.20
2022-11-29T01:40:07.299Z,52.50
2022-11-29T01:40:17.335Z,52.70
2022-11-29T01:40:27.326Z,52.00
2022-11-29T01:40:37.429Z,53.00
2022-11-29T01:40:48.281Z,51.80
2022-11-29T01:40:57.294Z,50.90
2022-11-29T01:41:07.303Z,51.00
2022-11-29T01:41:17.298Z,51.90
2022-11-29T01:41:27.306Z,51.40
2022-11-29T01:41:37.297Z,50.70
2022-11-29T01:41:47.322Z,51.20
2022-11-29T01:41:57.289Z,55.40
2022-11-29T01:42:07.308Z,52.30
2022-11-29T01:42:17.295Z,52.10
2022-11-29T01:42:27.319Z,53.10
2022-11-29T01:42:37.302Z,52.60
2022-11-29T01:42:47.317Z,53.30
2022-11-29T01:42:57.285Z,52.40
2022-11-29T01:43:07.327Z,58.00
2022-11-29T01:43:17.371Z,51.90
2022-11-29T01:43:27.284Z,52.30
2022-11-29T01:43:38.248Z,55.70
2022-11-29T01:43:47.307Z,54.50
2022-11-29T01:43:57.291Z,53.90
2022-11-29T01:44:07.286Z,51.00
2022-11-29T01:44:17.300Z,50.40
2022-11-29T01:44:27.290Z,51.00
2022-11-29T01:44:37.788Z,52.20
2022-11-29T01:44:47.359Z,54.60
2022-11-29T01:44:57.277Z,54.40
2022-11-29T01:45:07.287Z,57.90
2022-11-29T01:45:17.295Z,55.10
2022-11-29T01:45:27.300Z,57.90
2022-11-29T01:45:37.309Z,52.20
2022-11-29T01:45:47.508Z,52.10
2022-11-29T01:45:57.338Z,53.00
2022-11-29T01:46:07.466Z,52.20
2022-11-29T01:46:17.320Z,55.50
2022-11-29T01:46:27.430Z,53.80
2022-11-29T01:46:37.276Z,54.30
2022-11-29T01:46:47.305Z,52.10
2022-11-29T01:46:57.267Z,53.90
2022-11-29T01:47:07.288Z,51.50
2022-11-29T01:47:17.272Z,52.80
2022-11-29T01:47:27.792Z,51.70
2022-11-29T01:47:37.273Z,53.10
2022-11-29T01:47:47.280Z,52.10
2022-11-29T01:47:57.312Z,53.10
2022-11-29T01:48:07.347Z,57.40
2022-11-29T01:48:17.272Z,66.60
2022-11-29T01:48:27.282Z,62.80
2022-11-29T01:48:37.262Z,55.00
2022-11-29T01:48:47.280Z,50.70
2022-11-29T01:48:57.264Z,51.70
2022-11-29T01:49:07.263Z,53.30
2022-11-29T01:49:17.263Z,53.50
2022-11-29T01:49:27.271Z,54.90
2022-11-29T01:49:37.258Z,52.50
2022-11-29T01:49:47.279Z,52.40
2022-11-29T01:49:57.257Z,55.00
2022-11-29T01:50:07.254Z,58.00
2022-11-29T01:50:17.319Z,52.20
2022-11-29T01:50:27.251Z,50.00
2022-11-29T01:50:37.263Z,48.50
2022-11-29T01:50:47.273Z,50.70
2022-11-29T01:50:57.447Z,51.00
2022-11-29T01:51:07.263Z,51.60
2022-11-29T01:51:17.285Z,50.70
2022-11-29T01:51:27.254Z,50.10
2022-11-29T01:51:37.272Z,51.30
2022-11-29T01:51:47.267Z,51.60
2022-11-29T01:51:57.251Z,53.70
2022-11-29T01:52:07.335Z,54.10
2022-11-29T01:52:17.818Z,56.50
2022-11-29T01:52:27.248Z,55.10
2022-11-29T01:52:37.246Z,57.50
2022-11-29T01:52:47.255Z,57.80
2022-11-29T01:52:57.257Z,58.90
2022-11-29T01:53:07.245Z,56.60
2022-11-29T01:53:17.246Z,52.70
2022-11-29T01:53:27.247Z,51.50
2022-11-29T01:53:37.271Z,50.80
2022-11-29T01:53:47.791Z,52.20
2022-11-29T01:53:57.252Z,52.60
2022-11-29T01:54:07.251Z,54.50
2022-11-29T01:54:17.248Z,53.70
2022-11-29T01:54:27.825Z,52.20
2022-11-29T01:54:37.236Z,53.90
2022-11-29T01:54:47.499Z,53.60
2022-11-29T01:54:57.259Z,53.90
2022-11-29T01:55:07.315Z,52.50
2022-11-29T01:55:17.231Z,61.10
2022-11-29T01:55:27.236Z,65.30
2022-11-29T01:55:37.322Z,55.40
2022-11-29T01:55:47.853Z,54.40
2022-11-29T01:55:57.285Z,53.70
2022-11-29T01:56:07.836Z,65.30
2022-11-29T01:56:17.274Z,64.60
2022-11-29T01:56:27.266Z,59.70
2022-11-29T01:56:37.237Z,54.90
2022-11-29T01:56:47.273Z,56.00
2022-11-29T01:56:57.231Z,56.70
2022-11-29T01:57:07.228Z,58.20
2022-11-29T01:57:17.291Z,54.80
2022-11-29T01:57:27.228Z,54.50
2022-11-29T01:57:37.222Z,50.80
2022-11-29T01:57:47.244Z,52.50
2022-11-29T01:57:57.230Z,55.80
2022-11-29T01:58:07.239Z,53.80
2022-11-29T01:58:17.793Z,53.20
2022-11-29T01:58:27.257Z,52.50
2022-11-29T01:58:37.217Z,56.60
2022-11-29T01:58:47.245Z,52.80
2022-11-29T01:58:57.227Z,50.80
2022-11-29T01:59:07.217Z,51.80
2022-11-29T01:59:17.785Z,56.30
2022-11-29T01:59:27.224Z,64.00
2022-11-29T01:59:37.235Z,58.50
2022-11-29T01:59:47.215Z,54.80
2022-11-29T01:59:57.278Z,51.70
2022-11-29T02:00:07.222Z,51.10
2022-11-29T02:00:17.300Z,52.10
2022-11-29T02:00:27.231Z,52.80
2022-11-29T02:00:37.240Z,56.70
2022-11-29T02:00:47.231Z,57.60
2022-11-29T02:00:57.275Z,54.80
2022-11-29T02:01:07.248Z,53.80
2022-11-29T02:01:17.297Z,53.20
2022-11-29T02:01:27.260Z,53.40
2022-11-29T02:01:37.295Z,58.00
2022-11-29T02:01:47.795Z,62.60
2022-11-29T02:01:57.205Z,62.30
2022-11-29T02:02:09.946Z,61.40
2022-11-29T02:02:17.263Z,53.20
2022-11-29T02:02:27.264Z,52.80
2022-11-29T02:02:37.281Z,51.80
2022-11-29T02:02:47.307Z,55.90
2022-11-29T02:02:57.284Z,53.60
2022-11-29T02:03:07.218Z,53.30
2022-11-29T02:03:17.197Z,52.10
2022-11-29T02:03:27.788Z,53.00
2022-11-29T02:03:37.232Z,54.00
2022-11-29T02:03:47.209Z,55.90
2022-11-29T02:03:57.335Z,54.90
2022-11-29T02:04:07.201Z,53.40
2022-11-29T02:04:17.209Z,52.50
2022-11-29T02:04:27.198Z,51.10
2022-11-29T02:04:37.197Z,51.10
2022-11-29T02:04:47.600Z,51.50
2022-11-29T02:04:57.334Z,52.90
2022-11-29T02:05:07.210Z,52.50
2022-11-29T02:05:17.193Z,52.40
2022-11-29T02:05:27.228Z,49.60
2022-11-29T02:05:37.250Z,50.30
2022-11-29T02:05:47.207Z,49.90
2022-11-29T02:05:57.192Z,50.90
2022-11-29T02:06:07.188Z,51.10
2022-11-29T02:06:17.787Z,52.00
2022-11-29T02:06:27.260Z,55.90
2022-11-29T02:06:37.188Z,61.00
2022-11-29T02:06:47.198Z,68.90
2022-11-29T02:06:57.193Z,66.50
2022-11-29T02:07:07.188Z,57.50
2022-11-29T02:07:17.265Z,54.40
2022-11-29T02:07:27.257Z,52.60
2022-11-29T02:07:37.837Z,54.30
2022-11-29T02:07:47.381Z,54.60
2022-11-29T02:07:57.259Z,59.80
2022-11-29T02:08:07.193Z,60.00
2022-11-29T02:08:17.191Z,53.70
2022-11-29T02:08:27.180Z,53.50
2022-11-29T02:08:37.206Z,52.00